Time;durP1;ratioP1;P1;durP2;ratioP2;P2;SDS_P1;SDS_P2;PMS_P1;PMS_P2;Temp;Humidity;BMP_temperature;BMP_pressure;BME280_temperature;BME280_humidity;BME280_pressure;Samples;Min_cycle;Max_cycle;Signal;HPM_P1;HPM_P2
2023/08/17 00:00:38;;;;;;;7.40;5.68;;;;;;;18.59;100.00;98561.47;2597935;28;20917;-91
2023/08/17 00:02:14;;;;;;;8.13;5.68;;;;;;;18.40;100.00;98553.75;2598469;28;20052;-90
2023/08/17 00:03:29;;;;;;;10.18;6.03;;;;;;;18.45;100.00;98559.63;2598953;28;20049;-90
2023/08/17 00:04:45;;;;;;;7.68;5.47;;;;;;;18.52;100.00;98560.13;2598780;28;20041;-89
2023/08/17 00:06:00;;;;;;;8.15;5.75;;;;;;;18.65;100.00;98558.47;2598665;28;20060;-90
2023/08/17 00:07:16;;;;;;;7.57;6.15;;;;;;;18.67;100.00;98567.16;2597543;28;20215;-90
2023/08/17 00:08:32;;;;;;;8.63;6.53;;;;;;;18.84;100.00;98560.00;2597774;28;20060;-89
2023/08/17 00:09:48;;;;;;;7.38;5.43;;;;;;;18.75;100.00;98559.63;2587203;28;20815;-90
2023/08/17 00:11:03;;;;;;;8.65;6.28;;;;;;;18.64;100.00;98557.59;2592011;28;20054;-90
2023/08/17 00:12:19;;;;;;;8.07;5.88;;;;;;;18.69;100.00;98545.88;2592460;28;20049;-91
2023/08/17 00:13:35;;;;;;;10.00;6.03;;;;;;;18.79;100.00;98547.03;2595391;28;20064;-90
2023/08/17 00:14:51;;;;;;;9.15;6.03;;;;;;;18.92;100.00;98547.13;2598568;28;20452;-90
2023/08/17 00:16:07;;;;;;;7.70;6.10;;;;;;;19.01;100.00;98543.97;2598473;28;20049;-89
2023/08/17 00:17:22;;;;;;;8.65;5.97;;;;;;;19.08;100.00;98538.25;2598364;28;20049;-90
2023/08/17 00:18:38;;;;;;;9.00;5.55;;;;;;;18.84;100.00;98547.59;2598613;28;20049;-90
2023/08/17 00:19:54;;;;;;;8.80;6.05;;;;;;;18.72;100.00;98540.38;2598511;28;20064;-90
2023/08/17 00:21:09;;;;;;;10.30;6.15;;;;;;;18.79;100.00;98539.09;2598576;28;20045;-90
2023/08/17 00:22:25;;;;;;;10.85;6.00;;;;;;;18.80;100.00;98537.25;2598350;28;20564;-90
2023/08/17 00:23:41;;;;;;;9.30;6.25;;;;;;;18.82;100.00;98540.66;2598543;28;20773;-90
2023/08/17 00:24:56;;;;;;;8.13;5.65;;;;;;;18.62;100.00;98532.97;2598546;28;20513;-90
2023/08/17 00:26:13;;;;;;;9.88;6.57;;;;;;;18.53;100.00;98535.31;2587104;28;20072;-90
2023/08/17 00:27:31;;;;;;;8.38;6.15;;;;;;;18.66;100.00;98538.94;2587108;28;20045;-90
2023/08/17 00:28:47;;;;;;;8.18;6.47;;;;;;;18.71;100.00;98550.13;2592184;28;20111;-90
2023/08/17 00:30:03;;;;;;;9.23;6.13;;;;;;;18.85;100.00;98545.78;2598259;28;20045;-90
2023/08/17 00:31:18;;;;;;;8.18;6.32;;;;;;;18.96;100.00;98540.69;2586952;28;20057;-89
2023/08/17 00:32:34;;;;;;;8.15;6.72;;;;;;;19.01;100.00;98549.28;2591695;28;20046;-90
2023/08/17 00:33:50;;;;;;;9.48;6.30;;;;;;;18.98;100.00;98548.56;2598416;28;20109;-90
2023/08/17 00:35:06;;;;;;;9.35;6.28;;;;;;;18.86;100.00;98555.47;2599387;28;20049;-90
2023/08/17 00:36:21;;;;;;;10.95;6.20;;;;;;;18.61;100.00;98547.16;2602911;28;20542;-91
2023/08/17 00:37:37;;;;;;;9.35;6.47;;;;;;;18.53;100.00;98545.91;2602779;28;20054;-89
2023/08/17 00:38:53;;;;;;;7.22;5.95;;;;;;;18.73;100.00;98542.94;2588639;28;20425;-90
2023/08/17 00:40:09;;;;;;;12.60;6.63;;;;;;;18.59;100.00;98548.22;2591806;28;20095;-90
2023/08/17 00:41:24;;;;;;;9.15;6.50;;;;;;;18.41;100.00;98540.41;2598270;28;20045;-89
2023/08/17 00:42:40;;;;;;;8.48;6.18;;;;;;;18.37;100.00;98540.66;2598370;28;20045;-90
2023/08/17 00:43:56;;;;;;;9.25;6.78;;;;;;;18.43;100.00;98535.00;2597411;28;20049;-90
2023/08/17 00:45:12;;;;;;;8.35;6.53;;;;;;;18.21;100.00;98531.81;2597294;28;20413;-92
2023/08/17 00:46:29;;;;;;;10.57;6.65;;;;;;;18.16;100.00;98531.25;2598061;28;20555;-89
2023/08/17 00:47:45;;;;;;;8.95;6.40;;;;;;;18.30;100.00;98533.09;2586804;28;20061;-90
2023/08/17 00:49:01;;;;;;;9.98;6.82;;;;;;;18.15;100.00;98531.31;2591092;28;20057;-91
2023/08/17 00:50:17;;;;;;;11.93;6.38;;;;;;;18.05;100.00;98536.31;2598232;28;20057;-90
2023/08/17 00:51:33;;;;;;;7.40;5.88;;;;;;;18.13;100.00;98530.56;2598114;28;20053;-89
2023/08/17 00:52:50;;;;;;;9.73;6.53;;;;;;;18.04;100.00;98534.59;2598106;28;20433;-89
2023/08/17 00:54:07;;;;;;;8.43;6.43;;;;;;;18.03;100.00;98530.25;2586763;28;20062;-89
2023/08/17 00:55:22;;;;;;;8.82;6.50;;;;;;;17.96;100.00;98531.50;2580973;28;20045;-90
2023/08/17 00:56:38;;;;;;;9.88;6.05;;;;;;;17.98;100.00;98532.25;2591506;28;20044;-89
2023/08/17 00:57:56;;;;;;;8.93;7.13;;;;;;;18.10;100.00;98523.63;2597995;28;20052;-89
2023/08/17 00:59:12;;;;;;;9.20;6.90;;;;;;;18.21;100.00;98529.19;2598411;28;20046;-89
2023/08/17 01:00:27;;;;;;;9.25;6.80;;;;;;;18.11;100.00;98521.84;2598141;28;20055;-90
2023/08/17 01:01:43;;;;;;;9.80;6.65;;;;;;;18.04;100.00;98516.06;2598482;28;20478;-90
2023/08/17 01:02:59;;;;;;;8.93;6.97;;;;;;;17.90;100.00;98519.44;2597994;28;20402;-90
2023/08/17 01:04:15;;;;;;;8.77;6.68;;;;;;;17.84;100.00;98518.00;2586986;28;20092;-89
2023/08/17 01:05:32;;;;;;;12.60;7.13;;;;;;;17.81;100.00;98509.38;2591287;28;20049;-89
2023/08/17 01:06:48;;;;;;;9.20;6.75;;;;;;;17.90;100.00;98508.84;2598621;28;20056;-90
2023/08/17 01:08:04;;;;;;;13.38;6.82;;;;;;;17.90;100.00;98514.16;2598259;28;20422;-89
2023/08/17 01:09:19;;;;;;;11.60;6.70;;;;;;;17.92;100.00;98513.13;2586893;28;20050;-89
2023/08/17 01:11:03;;;;;;;11.48;7.20;;;;;;;18.18;100.00;98509.94;2591405;28;20057;-89
2023/08/17 01:12:36;;;;;;;10.70;6.35;;;;;;;18.12;100.00;98508.50;2597901;28;20053;-89
2023/08/17 01:14:09;;;;;;;8.85;6.75;;;;;;;18.09;100.00;98515.75;2598083;28;20060;-89
2023/08/17 01:15:36;;;;;;;7.72;6.25;;;;;;;18.30;100.00;98513.66;2597862;28;20132;-89
2023/08/17 01:17:06;;;;;;;7.75;6.10;;;;;;;18.14;100.00;98505.78;2596843;28;20065;-90
2023/08/17 01:18:28;;;;;;;10.00;6.10;;;;;;;18.10;100.00;98509.56;2597672;28;20554;-89
2023/08/17 01:19:45;;;;;;;9.32;6.75;;;;;;;18.16;100.00;98503.88;2598177;28;20136;-90
2023/08/17 01:21:05;;;;;;;10.90;6.78;;;;;;;18.17;100.00;98511.75;2598053;28;20042;-90
2023/08/17 01:22:22;;;;;;;8.38;5.82;;;;;;;18.25;100.00;98513.09;2598205;28;20049;-89
2023/08/17 01:23:38;;;;;;;7.90;6.22;;;;;;;18.27;100.00;98505.91;2598165;28;20053;-89
2023/08/17 01:24:59;;;;;;;9.15;6.65;;;;;;;18.32;100.00;98503.84;2598261;28;20099;-91
2023/08/17 01:26:18;;;;;;;10.55;6.72;;;;;;;18.31;100.00;98502.16;2597980;28;20124;-90
2023/08/17 01:27:46;;;;;;;8.00;6.60;;;;;;;18.13;100.00;98502.25;2598085;28;20046;-90
2023/08/17 01:29:02;;;;;;;7.80;6.30;;;;;;;18.06;100.00;98498.28;2586811;28;20053;-89
2023/08/17 01:30:18;;;;;;;8.63;6.70;;;;;;;18.19;100.00;98499.28;2591214;28;20053;-89
2023/08/17 01:32:02;;;;;;;11.68;7.07;;;;;;;18.23;100.00;98494.66;2597871;28;20057;-90
2023/08/17 01:33:27;;;;;;;8.40;6.20;;;;;;;18.07;100.00;98498.16;2587117;28;20107;-91
2023/08/17 01:34:50;;;;;;;10.93;7.15;;;;;;;17.87;100.00;98503.75;2596994;28;20060;-90
2023/08/17 01:36:13;;;;;;;9.02;6.45;;;;;;;17.74;100.00;98506.22;2597773;28;20525;-90
2023/08/17 01:37:31;;;;;;;10.75;6.65;;;;;;;17.65;100.00;98505.81;2586738;28;20133;-89
2023/08/17 01:38:49;;;;;;;8.63;7.13;;;;;;;17.59;100.00;98508.78;2591810;28;20310;-89
2023/08/17 01:40:07;;;;;;;8.07;6.78;;;;;;;17.65;100.00;98510.25;2586749;28;20049;-90
2023/08/17 01:41:25;;;;;;;12.57;7.68;;;;;;;17.88;100.00;98516.91;2591566;28;20060;-90
2023/08/17 01:42:42;;;;;;;12.48;7.35;;;;;;;17.88;100.00;98524.84;2597915;28;20120;-91
2023/08/17 01:43:59;;;;;;;8.70;6.47;;;;;;;17.90;100.00;98519.44;2597945;28;20049;-90
2023/08/17 01:45:16;;;;;;;10.32;7.18;;;;;;;17.86;100.00;98523.22;2598033;28;20046;-90
2023/08/17 01:46:34;;;;;;;11.25;6.38;;;;;;;17.91;100.00;98524.66;2597837;28;20076;-93
2023/08/17 01:47:49;;;;;;;10.55;6.95;;;;;;;17.77;100.00;98520.16;2597770;28;20553;-90
2023/08/17 01:49:05;;;;;;;10.75;6.70;;;;;;;17.82;100.00;98516.41;2587523;28;20334;-89
2023/08/17 01:50:21;;;;;;;11.07;6.82;;;;;;;17.97;100.00;98519.97;2592898;28;20054;-89
2023/08/17 01:51:36;;;;;;;8.23;6.35;;;;;;;17.87;100.00;98522.28;2599999;28;20100;-89
2023/08/17 01:52:51;;;;;;;9.10;6.85;;;;;;;17.93;100.00;98527.22;2600006;28;20041;-90
2023/08/17 01:54:07;;;;;;;8.80;6.75;;;;;;;17.90;100.00;98522.97;2599906;28;20053;-89
2023/08/17 01:55:24;;;;;;;8.73;7.25;;;;;;;17.70;100.00;98525.88;2599952;28;20038;-89
2023/08/17 01:56:39;;;;;;;9.68;6.55;;;;;;;17.65;100.00;98520.84;2600211;28;20076;-89
2023/08/17 01:57:55;;;;;;;8.63;6.68;;;;;;;17.62;100.00;98521.00;2602616;28;20509;-89
2023/08/17 01:59:10;;;;;;;9.63;7.10;;;;;;;17.43;100.00;98513.22;2590926;28;20370;-89
2023/08/17 02:00:26;;;;;;;12.82;7.22;;;;;;;17.34;100.00;98518.09;2596485;28;20520;-90
2023/08/17 02:01:41;;;;;;;11.65;7.47;;;;;;;17.35;100.00;98513.66;2603223;28;20056;-90
2023/08/17 02:02:57;;;;;;;12.38;7.55;;;;;;;17.45;100.00;98506.91;2603039;28;20057;-90
2023/08/17 02:04:12;;;;;;;9.07;7.50;;;;;;;17.66;100.00;98498.69;2602832;28;20086;-89
2023/08/17 02:05:29;;;;;;;10.10;7.10;;;;;;;17.61;100.00;98495.47;2600690;28;20049;-89
2023/08/17 02:06:44;;;;;;;9.57;7.25;;;;;;;17.51;100.00;98493.34;2598464;28;20041;-91
2023/08/17 02:08:00;;;;;;;10.75;7.22;;;;;;;17.45;100.00;98490.19;2591857;28;20081;-89
2023/08/17 02:09:15;;;;;;;8.93;6.82;;;;;;;17.31;100.00;98485.66;2596880;28;20052;-88
2023/08/17 02:10:31;;;;;;;12.95;8.18;;;;;;;17.38;100.00;98487.00;2603571;28;20045;-88
2023/08/17 02:11:46;;;;;;;9.25;7.60;;;;;;;17.50;100.00;98488.97;2592523;28;20049;-89
2023/08/17 02:13:02;;;;;;;12.63;8.40;;;;;;;17.65;100.00;98489.06;2586576;28;20046;-88
2023/08/17 02:14:17;;;;;;;8.77;7.25;;;;;;;17.88;100.00;98487.78;2596881;28;20041;-89
2023/08/17 02:15:39;;;;;;;10.80;7.85;;;;;;;17.57;100.00;98489.50;2592404;28;20463;-88
2023/08/17 02:16:54;;;;;;;9.80;7.10;;;;;;;17.31;100.00;98485.66;2597600;28;20049;-88
2023/08/17 02:18:10;;;;;;;11.48;7.53;;;;;;;17.26;100.00;98498.31;2603489;28;20053;-88
2023/08/17 02:19:25;;;;;;;10.25;7.18;;;;;;;17.35;100.00;98489.84;2603373;28;20045;-89
2023/08/17 02:20:41;;;;;;;13.15;8.13;;;;;;;17.40;100.00;98489.59;2603751;28;20482;-89
2023/08/17 02:21:57;;;;;;;11.25;7.93;;;;;;;17.62;100.00;98484.81;2603565;28;20057;-89
2023/08/17 02:23:12;;;;;;;13.55;8.25;;;;;;;17.82;100.00;98489.91;2603346;28;20052;-89
2023/08/17 02:24:28;;;;;;;11.85;7.90;;;;;;;17.89;100.00;98486.84;2603377;28;20052;-89
2023/08/17 02:25:44;;;;;;;11.38;8.07;;;;;;;17.96;100.00;98494.41;2603470;28;20045;-89
2023/08/17 02:26:59;;;;;;;11.18;7.72;;;;;;;17.96;100.00;98489.13;2602565;28;20091;-89
2023/08/17 02:28:15;;;;;;;10.35;7.43;;;;;;;17.76;100.00;98491.13;2603105;28;20481;-89
2023/08/17 02:29:30;;;;;;;10.50;7.93;;;;;;;17.83;100.00;98489.81;2602455;28;20049;-89
2023/08/17 02:30:47;;;;;;;9.57;7.80;;;;;;;17.89;100.00;98494.78;2592454;28;20117;-89
2023/08/17 02:32:04;;;;;;;9.15;7.57;;;;;;;17.74;100.00;98485.03;2597085;28;20041;-90
2023/08/17 02:33:19;;;;;;;8.95;7.32;;;;;;;17.79;100.00;98483.00;2588166;28;20131;-90
2023/08/17 02:34:35;;;;;;;10.35;8.15;;;;;;;17.81;100.00;98482.88;2581685;28;20525;-90
2023/08/17 02:35:51;;;;;;;10.80;7.63;;;;;;;17.72;100.00;98485.13;2590796;28;20053;-89
2023/08/17 02:37:06;;;;;;;11.20;7.78;;;;;;;17.75;100.00;98484.97;2585919;28;20049;-90
2023/08/17 02:38:22;;;;;;;11.32;8.25;;;;;;;17.79;100.00;98480.34;2592529;28;20053;-90
2023/08/17 02:39:37;;;;;;;10.20;6.75;;;;;;;17.75;100.00;98484.13;2588106;28;20038;-89
2023/08/17 02:40:53;;;;;;;10.18;7.55;;;;;;;17.76;100.00;98481.38;2592331;28;20068;-90
2023/08/17 02:42:09;;;;;;;11.38;8.00;;;;;;;17.81;100.00;98483.75;2599736;28;20045;-91
2023/08/17 02:43:24;;;;;;;10.25;8.13;;;;;;;17.75;100.00;98478.81;2599631;28;20053;-89
2023/08/17 02:44:40;;;;;;;10.75;8.15;;;;;;;17.68;100.00;98480.09;2599401;28;20057;-90
2023/08/17 02:45:55;;;;;;;11.68;7.93;;;;;;;17.78;100.00;98486.59;2599229;28;20046;-90
2023/08/17 02:47:11;;;;;;;10.90;8.13;;;;;;;17.40;100.00;98490.47;2599429;28;20084;-90
2023/08/17 02:48:27;;;;;;;10.70;8.00;;;;;;;17.50;100.00;98490.78;2599607;28;20061;-90
2023/08/17 02:49:42;;;;;;;10.52;7.50;;;;;;;17.60;100.00;98496.41;2599348;28;20050;-90
2023/08/17 02:50:58;;;;;;;10.65;7.88;;;;;;;17.65;100.00;98487.28;2599411;28;20045;-90
2023/08/17 02:52:14;;;;;;;10.57;8.10;;;;;;;17.73;100.00;98497.44;2599174;28;20049;-89
2023/08/17 02:53:29;;;;;;;10.80;8.00;;;;;;;17.69;100.00;98493.25;2599268;28;20061;-90
2023/08/17 02:54:45;;;;;;;13.13;8.57;;;;;;;17.74;100.00;98495.63;2599515;28;20084;-90
2023/08/17 02:56:00;;;;;;;11.75;7.95;;;;;;;17.76;100.00;98504.34;2599445;28;20053;-91
2023/08/17 02:57:17;;;;;;;10.95;7.70;;;;;;;17.77;100.00;98506.06;2599306;28;20049;-89
2023/08/17 02:58:33;;;;;;;10.00;7.60;;;;;;;17.58;100.00;98511.53;2599341;28;20049;-90
2023/08/17 02:59:48;;;;;;;10.55;7.38;;;;;;;17.42;100.00;98504.44;2598860;28;20045;-91
2023/08/17 03:01:04;;;;;;;9.20;7.35;;;;;;;17.11;100.00;98497.31;2599650;28;20046;-90
2023/08/17 03:02:20;;;;;;;10.73;7.90;;;;;;;17.15;100.00;98507.66;2600115;28;20064;-90
2023/08/17 03:03:36;;;;;;;11.05;8.55;;;;;;;17.23;100.00;98501.97;2602542;28;20093;-90
2023/08/17 03:04:51;;;;;;;11.85;8.13;;;;;;;17.26;100.00;98504.44;2602421;28;21035;-90
2023/08/17 03:06:07;;;;;;;11.38;7.85;;;;;;;17.35;100.00;98508.34;2601436;28;20060;-90
2023/08/17 03:07:23;;;;;;;10.48;7.75;;;;;;;17.47;100.00;98506.84;2600728;28;20041;-90
2023/08/17 03:08:39;;;;;;;9.05;7.07;;;;;;;17.45;100.00;98503.41;2599462;28;20239;-90
2023/08/17 03:09:56;;;;;;;9.55;7.50;;;;;;;17.45;100.00;98506.06;2593350;28;20095;-90
2023/08/17 03:11:11;;;;;;;10.77;7.18;;;;;;;17.38;100.00;98512.63;2594336;28;20929;-90
2023/08/17 03:12:27;;;;;;;9.90;7.50;;;;;;;17.21;100.00;98506.47;2599737;28;20053;-89
2023/08/17 03:13:43;;;;;;;12.60;7.18;;;;;;;17.22;100.00;98513.47;2599420;28;20053;-90
2023/08/17 03:14:58;;;;;;;10.60;7.63;;;;;;;16.86;100.00;98502.13;2599439;28;20061;-89
2023/08/17 03:16:15;;;;;;;10.38;7.95;;;;;;;16.91;100.00;98508.00;2598966;28;20459;-90
2023/08/17 03:17:31;;;;;;;9.50;7.65;;;;;;;16.92;100.00;98507.06;2598984;28;20045;-91
2023/08/17 03:18:48;;;;;;;12.23;8.00;;;;;;;16.91;100.00;98504.53;2599247;28;20408;-90
2023/08/17 03:20:06;;;;;;;12.45;9.15;;;;;;;17.04;100.00;98505.59;2587835;28;20045;-90
2023/08/17 03:21:22;;;;;;;13.10;9.02;;;;;;;16.96;100.00;98499.81;2587493;28;20105;-89
2023/08/17 03:22:38;;;;;;;12.23;8.82;;;;;;;17.16;100.00;98506.72;2587796;28;20746;-89
2023/08/17 03:23:53;;;;;;;11.35;8.45;;;;;;;17.17;100.00;98505.78;2587774;28;20056;-90
2023/08/17 03:25:10;;;;;;;12.27;8.50;;;;;;;17.29;100.00;98508.72;2587873;28;20186;-90
2023/08/17 03:26:26;;;;;;;11.50;8.70;;;;;;;17.23;100.00;98508.09;2578089;28;20042;-90
2023/08/17 03:27:41;;;;;;;10.77;8.23;;;;;;;17.17;100.00;98505.78;2589425;28;20048;-90
2023/08/17 03:28:57;;;;;;;10.55;8.93;;;;;;;17.12;100.00;98517.56;2598769;28;20413;-91
2023/08/17 03:30:12;;;;;;;10.73;8.13;;;;;;;17.05;100.00;98517.03;2599054;28;20124;-91
2023/08/17 03:31:28;;;;;;;10.65;8.10;;;;;;;17.16;100.00;98517.31;2598835;28;20053;-90
2023/08/17 03:32:44;;;;;;;14.10;8.55;;;;;;;17.32;100.00;98513.81;2598810;28;20056;-90
2023/08/17 03:34:00;;;;;;;10.23;7.63;;;;;;;17.38;100.00;98518.78;2598608;28;20699;-90
2023/08/17 03:35:15;;;;;;;13.38;8.40;;;;;;;17.31;100.00;98523.53;2599078;28;20132;-89
2023/08/17 03:36:31;;;;;;;10.73;7.85;;;;;;;17.10;100.00;98519.44;2598711;28;20133;-90
2023/08/17 03:37:47;;;;;;;10.45;7.65;;;;;;;17.08;100.00;98524.78;2598651;28;20045;-90
2023/08/17 03:39:02;;;;;;;11.55;8.23;;;;;;;16.79;100.00;98532.44;2598763;28;20389;-90
2023/08/17 03:40:18;;;;;;;9.60;7.80;;;;;;;16.86;100.00;98528.56;2598555;28;20648;-90
2023/08/17 03:41:36;;;;;;;14.02;8.80;;;;;;;17.00;100.00;98522.56;2598888;28;20045;-92
2023/08/17 03:42:54;;;;;;;12.65;8.30;;;;;;;17.05;100.00;98520.53;2598633;28;20145;-89
2023/08/17 03:44:10;;;;;;;15.00;8.50;;;;;;;17.01;100.00;98524.25;2597593;28;20111;-89
2023/08/17 03:45:25;;;;;;;11.63;9.00;;;;;;;16.97;100.00;98519.19;2587512;28;20576;-90
2023/08/17 03:46:41;;;;;;;12.55;8.55;;;;;;;16.94;100.00;98517.56;2591651;28;20069;-90
2023/08/17 03:47:57;;;;;;;10.90;8.00;;;;;;;17.00;100.00;98516.44;2597396;28;20050;-89
2023/08/17 03:49:12;;;;;;;12.02;8.27;;;;;;;17.06;100.00;98522.25;2587161;28;20073;-88
2023/08/17 03:50:28;;;;;;;14.25;8.45;;;;;;;17.11;100.00;98521.13;2592192;28;20055;-92
2023/08/17 03:51:44;;;;;;;14.05;8.73;;;;;;;16.91;100.00;98520.38;2587372;28;20060;-91
2023/08/17 03:52:59;;;;;;;12.02;8.57;;;;;;;17.00;100.00;98525.19;2592166;28;20132;-91
2023/08/17 03:54:15;;;;;;;13.38;9.05;;;;;;;16.98;100.00;98521.75;2587825;28;20433;-92
2023/08/17 03:55:30;;;;;;;16.00;9.35;;;;;;;17.19;100.00;98518.94;2581320;28;20048;-91
2023/08/17 03:56:46;;;;;;;14.25;8.88;;;;;;;17.11;100.00;98523.78;2592036;28;20045;-92
2023/08/17 03:58:02;;;;;;;13.68;8.80;;;;;;;17.06;100.00;98516.97;2598465;28;20059;-92
2023/08/17 03:59:17;;;;;;;11.05;8.80;;;;;;;17.02;100.00;98520.69;2598997;28;20055;-92
2023/08/17 04:00:33;;;;;;;11.70;8.95;;;;;;;17.23;100.00;98521.31;2598383;28;20040;-91
2023/08/17 04:01:50;;;;;;;11.02;8.35;;;;;;;17.29;100.00;98520.13;2587253;28;20128;-92
2023/08/17 04:03:06;;;;;;;11.27;8.35;;;;;;;17.26;100.00;98530.06;2592205;28;20057;-92
2023/08/17 04:04:22;;;;;;;11.05;8.23;;;;;;;17.24;100.00;98522.19;2587232;28;20464;-91
2023/08/17 04:05:37;;;;;;;11.55;8.20;;;;;;;17.20;100.00;98529.44;2591590;28;20408;-92
2023/08/17 04:06:53;;;;;;;12.55;8.85;;;;;;;17.28;100.00;98526.38;2598315;28;20053;-92
2023/08/17 04:08:09;;;;;;;10.60;8.05;;;;;;;17.28;100.00;98530.81;2598289;28;20060;-92
2023/08/17 04:09:24;;;;;;;10.05;7.47;;;;;;;17.33;100.00;98531.41;2598634;28;20052;-92
2023/08/17 04:10:40;;;;;;;10.23;8.40;;;;;;;17.27;100.00;98532.59;2598600;28;20046;-92
2023/08/17 04:11:57;;;;;;;13.80;8.02;;;;;;;16.96;100.00;98531.56;2597884;28;20540;-92
2023/08/17 04:13:12;;;;;;;10.43;8.38;;;;;;;16.77;100.00;98532.53;2598650;28;20480;-93
2023/08/17 04:14:28;;;;;;;13.07;8.32;;;;;;;16.65;100.00;98528.72;2587042;28;20049;-93
2023/08/17 04:15:43;;;;;;;12.23;8.65;;;;;;;16.73;100.00;98533.63;2581001;28;20093;-92
2023/08/17 04:16:59;;;;;;;12.82;8.85;;;;;;;16.85;100.00;98531.28;2587522;28;20077;-92
2023/08/17 04:18:15;;;;;;;13.45;9.45;;;;;;;17.01;100.00;98529.56;2591960;28;20042;-92
2023/08/17 04:19:30;;;;;;;12.20;9.40;;;;;;;16.97;100.00;98537.69;2598295;28;20046;-92
2023/08/17 04:20:46;;;;;;;16.83;9.18;;;;;;;17.17;100.00;98537.53;2597415;28;20112;-92
2023/08/17 04:22:02;;;;;;;13.82;8.95;;;;;;;17.14;100.00;98542.13;2586880;28;20046;-92
2023/08/17 04:23:17;;;;;;;11.80;8.68;;;;;;;16.95;100.00;98551.00;2587301;28;20061;-92
2023/08/17 04:24:33;;;;;;;18.25;10.27;;;;;;;17.16;100.00;98549.06;2581239;28;20049;-93
2023/08/17 04:25:49;;;;;;;16.70;10.20;;;;;;;16.99;100.00;98557.88;2578910;28;20046;-92
2023/08/17 04:27:05;;;;;;;14.65;10.07;;;;;;;16.65;100.00;98557.81;2588372;28;20060;-92
2023/08/17 04:28:20;;;;;;;15.10;10.25;;;;;;;16.72;100.00;98558.34;2587513;28;20398;-92
2023/08/17 04:29:37;;;;;;;15.35;10.63;;;;;;;16.91;100.00;98563.53;2580823;28;20435;-92
2023/08/17 04:30:53;;;;;;;16.48;10.13;;;;;;;16.90;100.00;98558.31;2586358;28;20485;-92
2023/08/17 04:32:13;;;;;;;13.30;9.65;;;;;;;17.05;100.00;98554.94;2587233;28;20049;-92
2023/08/17 04:33:29;;;;;;;16.25;9.57;;;;;;;17.12;100.00;98559.88;2592342;28;20041;-92
2023/08/17 04:34:45;;;;;;;14.23;8.82;;;;;;;17.28;100.00;98557.28;2586920;28;20054;-93
2023/08/17 04:36:01;;;;;;;12.25;8.75;;;;;;;17.35;100.00;98561.28;2591418;28;20053;-92
2023/08/17 04:37:17;;;;;;;14.52;10.43;;;;;;;17.39;100.00;98560.19;2587385;28;20446;-93
2023/08/17 04:38:32;;;;;;;14.90;9.30;;;;;;;17.43;100.00;98556.44;2580912;28;20097;-92
2023/08/17 04:39:49;;;;;;;11.82;9.00;;;;;;;17.30;100.00;98556.22;2587074;28;20041;-92
2023/08/17 04:41:04;;;;;;;15.07;9.82;;;;;;;17.10;100.00;98556.47;2591978;28;20041;-92
2023/08/17 04:42:20;;;;;;;12.35;9.57;;;;;;;17.20;100.00;98560.34;2598224;28;20049;-92
2023/08/17 04:43:35;;;;;;;16.40;9.77;;;;;;;17.23;100.00;98555.72;2586919;28;20040;-92
2023/08/17 04:44:51;;;;;;;14.32;9.90;;;;;;;17.11;100.00;98559.00;2580570;28;20245;-92
2023/08/17 04:46:06;;;;;;;13.98;10.25;;;;;;;17.29;100.00;98556.34;2591388;28;20072;-92
2023/08/17 04:47:22;;;;;;;15.38;10.27;;;;;;;17.28;100.00;98558.13;2597932;28;20049;-92
2023/08/17 04:48:38;;;;;;;13.38;9.80;;;;;;;17.35;100.00;98559.50;2586819;28;20057;-93
2023/08/17 04:49:53;;;;;;;12.45;9.02;;;;;;;17.45;100.00;98559.84;2586807;28;20045;-93
2023/08/17 04:51:09;;;;;;;12.13;8.85;;;;;;;17.43;100.00;98563.50;2581100;28;20045;-91
2023/08/17 04:52:25;;;;;;;13.63;9.85;;;;;;;17.52;100.00;98573.63;2587148;28;20096;-93
2023/08/17 04:53:40;;;;;;;13.93;9.43;;;;;;;17.48;100.00;98564.97;2587588;28;20045;-92
2023/08/17 04:54:56;;;;;;;12.63;8.55;;;;;;;17.54;100.00;98565.59;2587820;28;20050;-93
2023/08/17 04:56:11;;;;;;;11.25;8.88;;;;;;;17.60;100.00;98563.47;2587159;28;20103;-93
2023/08/17 04:57:28;;;;;;;10.82;8.20;;;;;;;17.47;100.00;98554.50;2591493;28;20045;-93
2023/08/17 04:58:43;;;;;;;11.35;8.00;;;;;;;17.09;100.00;98547.66;2597896;28;20156;-92
2023/08/17 04:59:59;;;;;;;12.68;9.55;;;;;;;17.33;100.00;98561.38;2597560;28;20119;-91
2023/08/17 05:01:14;;;;;;;12.35;9.18;;;;;;;17.38;100.00;98561.13;2586856;28;20164;-92
2023/08/17 05:02:30;;;;;;;11.65;9.15;;;;;;;17.64;100.00;98567.66;2589160;28;20053;-91
2023/08/17 05:03:46;;;;;;;14.73;10.05;;;;;;;17.71;100.00;98567.28;2591012;28;20921;-92
2023/08/17 05:05:06;;;;;;;13.77;9.23;;;;;;;17.63;100.00;98565.94;2591823;28;20041;-93
2023/08/17 05:06:21;;;;;;;14.07;9.68;;;;;;;17.79;100.00;98565.09;2590816;28;20050;-92
2023/08/17 05:07:37;;;;;;;13.82;9.63;;;;;;;17.88;100.00;98574.31;2590147;28;20045;-91
2023/08/17 05:08:53;;;;;;;12.90;9.25;;;;;;;17.86;100.00;98574.38;2586700;28;20101;-91
2023/08/17 05:10:08;;;;;;;14.88;9.95;;;;;;;18.02;100.00;98578.81;2580720;28;20046;-91
2023/08/17 05:11:24;;;;;;;12.68;9.32;;;;;;;17.88;100.00;98571.66;2587344;28;20077;-91
2023/08/17 05:12:40;;;;;;;12.75;9.07;;;;;;;17.77;100.00;98572.28;2588256;28;20049;-91
2023/08/17 05:13:55;;;;;;;15.02;9.48;;;;;;;17.72;100.00;98576.94;2591613;28;20449;-91
2023/08/17 05:15:11;;;;;;;13.18;9.10;;;;;;;17.67;100.00;98571.06;2590543;28;20112;-91
2023/08/17 05:16:26;;;;;;;14.15;9.45;;;;;;;17.67;100.00;98565.75;2590791;28;20053;-92
2023/08/17 05:17:42;;;;;;;12.55;9.85;;;;;;;17.88;100.00;98572.53;2597088;28;20428;-91
2023/08/17 05:18:59;;;;;;;11.65;8.90;;;;;;;17.87;100.00;98569.97;2593420;28;20076;-91
2023/08/17 05:20:15;;;;;;;11.95;9.75;;;;;;;18.09;100.00;98574.91;2580800;28;20076;-92
2023/08/17 05:21:30;;;;;;;12.35;9.73;;;;;;;18.19;100.00;98576.13;2588065;28;20148;-92
2023/08/17 05:22:47;;;;;;;11.80;9.70;;;;;;;17.99;100.00;98579.00;2597249;28;20045;-90
2023/08/17 05:24:02;;;;;;;16.25;9.85;;;;;;;18.07;100.00;98582.94;2589207;28;20062;-92
2023/08/17 05:25:18;;;;;;;13.88;9.65;;;;;;;17.87;100.00;98581.38;2590061;28;20398;-91
2023/08/17 05:26:33;;;;;;;14.77;10.45;;;;;;;18.03;100.00;98589.38;2579463;28;20054;-91
2023/08/17 05:27:50;;;;;;;14.93;10.63;;;;;;;17.95;100.00;98588.06;2585713;28;20053;-91
2023/08/17 05:29:05;;;;;;;13.88;10.05;;;;;;;17.99;100.00;98593.09;2596402;28;20057;-91
2023/08/17 05:30:21;;;;;;;16.20;10.68;;;;;;;18.04;100.00;98595.53;2595142;28;20046;-91
2023/08/17 05:31:36;;;;;;;14.77;9.55;;;;;;;17.90;100.00;98594.47;2597226;28;20495;-91
2023/08/17 05:32:52;;;;;;;14.15;10.32;;;;;;;17.89;100.00;98595.41;2589405;28;20141;-90
2023/08/17 05:34:08;;;;;;;13.93;10.40;;;;;;;18.08;100.00;98605.00;2590463;28;20049;-91
2023/08/17 05:35:23;;;;;;;14.55;10.52;;;;;;;18.23;100.00;98599.78;2589025;28;20052;-91
2023/08/17 05:36:39;;;;;;;17.55;11.07;;;;;;;18.33;100.00;98600.97;2590865;28;20045;-90
2023/08/17 05:37:55;;;;;;;15.80;11.15;;;;;;;18.46;100.00;98594.00;2594868;28;20053;-90
2023/08/17 05:39:10;;;;;;;15.70;11.30;;;;;;;18.53;100.00;98602.47;2591897;28;20127;-90
2023/08/17 05:40:26;;;;;;;15.90;11.07;;;;;;;18.58;100.00;98594.25;2594638;28;20074;-91
2023/08/17 05:41:41;;;;;;;14.93;10.75;;;;;;;18.56;100.00;98601.41;2593874;28;20053;-90
2023/08/17 05:42:57;;;;;;;13.82;10.20;;;;;;;18.60;100.00;98593.19;2594124;28;20176;-90
2023/08/17 05:44:14;;;;;;;14.65;10.50;;;;;;;18.62;100.00;98596.59;2593006;28;20046;-90
2023/08/17 05:45:30;;;;;;;15.00;10.57;;;;;;;18.77;100.00;98591.34;2595083;28;20042;-92
2023/08/17 05:46:45;;;;;;;16.13;10.55;;;;;;;18.84;100.00;98594.47;2594269;28;20398;-91
2023/08/17 05:48:01;;;;;;;13.55;9.75;;;;;;;18.91;100.00;98590.53;2594005;28;20520;-91
2023/08/17 05:49:17;;;;;;;15.05;10.60;;;;;;;18.92;100.00;98589.59;2592759;28;20540;-90
2023/08/17 05:50:32;;;;;;;12.82;9.95;;;;;;;19.03;100.00;98587.16;2588909;28;20552;-91
2023/08/17 05:51:48;;;;;;;13.18;9.45;;;;;;;19.16;100.00;98583.78;2589701;28;20425;-91
2023/08/17 05:53:03;;;;;;;11.27;9.63;;;;;;;19.16;100.00;98579.31;2593998;28;20049;-90